Time;durP1;ratioP1;P1;durP2;ratioP2;P2;SDS_P1;SDS_P2;PMS_P1;PMS_P2;Temp;Humidity;BMP_temperature;BMP_pressure;BME280_temperature;BME280_humidity;BME280_pressure;Samples;Min_cycle;Max_cycle;Signal;HPM_P1;HPM_P2
2020/12/15 00:00:35;;;;;;;6.10;4.80;;;;;;;;;;5033965;28;20218;-65
2020/12/15 00:03:02;;;;;;;5.78;5.28;;;;;;;;;;5033823;28;20209;-65
2020/12/15 00:05:29;;;;;;;4.80;4.40;;;;;;;;;;5033387;28;20214;-65
2020/12/15 00:07:55;;;;;;;5.15;4.68;;;;;;;;;;5033920;28;20218;-65
2020/12/15 00:10:22;;;;;;;4.57;4.18;;;;;;;;;;5034242;28;20223;-64
2020/12/15 00:12:49;;;;;;;4.75;4.35;;;;;;;;;;5033556;28;20256;-65
2020/12/15 00:15:16;;;;;;;4.20;3.80;;;;;;;;;;5033709;28;20206;-64
2020/12/15 00:17:43;;;;;;;6.03;4.80;;;;;;;;;;5033529;28;20237;-65
2020/12/15 00:20:10;;;;;;;5.05;4.55;;;;;;;;;;5033056;28;20352;-65
2020/12/15 00:22:37;;;;;;;5.75;5.18;;;;;;;;;;5034123;28;20209;-64
2020/12/15 00:25:04;;;;;;;5.88;5.20;;;;;;;;;;5037460;28;20202;-65
2020/12/15 00:27:31;;;;;;;5.20;4.70;;;;;;;;;;5037529;28;20203;-66
2020/12/15 00:29:58;;;;;;;4.55;4.15;;;;;;;;;;5037241;28;20222;-64
2020/12/15 00:32:25;;;;;;;5.35;4.85;;;;;;;;;;5037282;28;20206;-65
2020/12/15 00:34:52;;;;;;;5.00;4.50;;;;;;;;;;5037216;28;20233;-64
2020/12/15 00:37:19;;;;;;;5.00;4.60;;;;;;;;;;5036848;28;20252;-66
2020/12/15 00:39:46;;;;;;;5.60;4.80;;;;;;;;;;5036721;28;20736;-65
2020/12/15 00:42:12;;;;;;;6.65;4.90;;;;;;;;;;5036873;28;20198;-65
2020/12/15 00:44:39;;;;;;;4.65;4.18;;;;;;;;;;5037139;28;20248;-65
2020/12/15 00:47:06;;;;;;;4.72;4.32;;;;;;;;;;5037136;28;20206;-65
2020/12/15 00:49:33;;;;;;;5.55;5.05;;;;;;;;;;5036738;28;20746;-65
2020/12/15 00:52:00;;;;;;;5.60;5.10;;;;;;;;;;5037351;28;20202;-65
2020/12/15 00:54:27;;;;;;;5.38;4.47;;;;;;;;;;5036994;28;20202;-65
2020/12/15 00:56:54;;;;;;;5.63;5.07;;;;;;;;;;5038567;28;20619;-65
2020/12/15 00:59:20;;;;;;;5.70;5.07;;;;;;;;;;5041276;28;20195;-64
2020/12/15 01:01:47;;;;;;;6.75;5.30;;;;;;;;;;5042569;28;20226;-65
2020/12/15 01:04:14;;;;;;;5.32;4.90;;;;;;;;;;5037241;28;20198;-64
2020/12/15 01:06:41;;;;;;;6.50;5.90;;;;;;;;;;5036991;28;20214;-64
2020/12/15 01:09:08;;;;;;;5.60;5.10;;;;;;;;;;5036254;28;20268;-64
2020/12/15 01:11:35;;;;;;;5.97;5.35;;;;;;;;;;5036699;28;20288;-65
2020/12/15 01:14:02;;;;;;;6.53;5.93;;;;;;;;;;5036559;28;20615;-65
2020/12/15 01:16:28;;;;;;;6.13;5.57;;;;;;;;;;5036332;28;20624;-65
2020/12/15 01:18:55;;;;;;;5.55;5.05;;;;;;;;;;5036103;28;20206;-65
2020/12/15 01:21:28;;;;;;;6.50;5.90;;;;;;;;;;5036262;28;20276;-64
2020/12/15 01:23:56;;;;;;;6.93;6.22;;;;;;;;;;5036534;28;20256;-64
2020/12/15 01:26:23;;;;;;;6.30;5.70;;;;;;;;;;5036659;28;20252;-65
2020/12/15 01:28:49;;;;;;;6.78;6.18;;;;;;;;;;5036051;28;20773;-65
2020/12/15 01:31:16;;;;;;;6.75;5.55;;;;;;;;;;5036066;28;20631;-65
2020/12/15 01:33:43;;;;;;;6.07;5.57;;;;;;;;;;5035451;28;20264;-65
2020/12/15 01:36:10;;;;;;;5.93;5.43;;;;;;;;;;5035637;28;20206;-64
2020/12/15 01:38:36;;;;;;;5.75;5.25;;;;;;;;;;5036004;28;20248;-66
2020/12/15 01:41:04;;;;;;;5.85;5.35;;;;;;;;;;5035677;28;20641;-65
2020/12/15 01:43:31;;;;;;;5.90;5.40;;;;;;;;;;5036116;28;20259;-64
2020/12/15 01:45:57;;;;;;;6.10;5.50;;;;;;;;;;5036198;28;20289;-65
2020/12/15 01:48:24;;;;;;;6.43;5.82;;;;;;;;;;5035727;28;20218;-64
2020/12/15 01:50:51;;;;;;;6.72;6.13;;;;;;;;;;5036069;28;20222;-65
2020/12/15 01:53:18;;;;;;;6.22;5.65;;;;;;;;;;5036078;28;20252;-64
2020/12/15 01:55:45;;;;;;;6.75;6.05;;;;;;;;;;5036537;28;20202;-65
2020/12/15 01:58:13;;;;;;;6.47;5.88;;;;;;;;;;5035980;28;20289;-65
2020/12/15 02:00:40;;;;;;;6.65;5.90;;;;;;;;;;5036033;28;20218;-65
2020/12/15 02:03:06;;;;;;;7.63;6.57;;;;;;;;;;5037598;28;20597;-64
2020/12/15 02:05:33;;;;;;;7.38;6.68;;;;;;;;;;5036620;28;20632;-64
2020/12/15 02:08:01;;;;;;;6.90;6.20;;;;;;;;;;5037478;28;20264;-65
2020/12/15 02:10:28;;;;;;;9.10;6.70;;;;;;;;;;5036168;28;20640;-65
2020/12/15 02:12:54;;;;;;;6.65;6.05;;;;;;;;;;5036667;28;20237;-65
2020/12/15 02:15:22;;;;;;;7.07;6.47;;;;;;;;;;5035377;28;20207;-66
2020/12/15 02:17:49;;;;;;;7.45;6.70;;;;;;;;;;5035373;28;20207;-65
2020/12/15 02:20:15;;;;;;;6.60;6.00;;;;;;;;;;5036900;28;20223;-64
2020/12/15 02:22:43;;;;;;;6.82;6.22;;;;;;;;;;5038931;28;20202;-65
2020/12/15 02:25:10;;;;;;;6.18;5.60;;;;;;;;;;5037357;28;20253;-65
2020/12/15 02:27:36;;;;;;;7.53;6.82;;;;;;;;;;5038328;28;20202;-64
2020/12/15 02:30:05;;;;;;;7.15;6.45;;;;;;;;;;5036635;28;20360;-64
2020/12/15 02:32:33;;;;;;;6.47;5.90;;;;;;;;;;5036536;28;20206;-65
2020/12/15 02:35:00;;;;;;;6.72;6.13;;;;;;;;;;5036219;28;20206;-64
2020/12/15 02:37:26;;;;;;;6.35;5.75;;;;;;;;;;5035393;28;20206;-64
2020/12/15 02:39:58;;;;;;;6.60;5.47;;;;;;;;;;5035178;28;20644;-64
2020/12/15 02:42:25;;;;;;;6.22;5.70;;;;;;;;;;5034909;28;20187;-65
2020/12/15 02:44:51;;;;;;;7.15;6.45;;;;;;;;;;5034963;28;20198;-65
2020/12/15 02:47:18;;;;;;;6.47;5.97;;;;;;;;;;5033751;28;20198;-65
2020/12/15 02:49:45;;;;;;;6.72;6.13;;;;;;;;;;5034372;28;20702;-65
2020/12/15 02:52:11;;;;;;;7.10;6.20;;;;;;;;;;5034524;28;20248;-64
2020/12/15 02:54:38;;;;;;;6.22;5.63;;;;;;;;;;5034878;28;20256;-65
2020/12/15 02:57:06;;;;;;;6.53;5.93;;;;;;;;;;5034671;28;20260;-64
2020/12/15 02:59:33;;;;;;;6.88;6.13;;;;;;;;;;5035022;28;20268;-66
2020/12/15 03:01:59;;;;;;;6.20;5.60;;;;;;;;;;5043249;28;20276;-65
2020/12/15 03:04:26;;;;;;;7.13;6.20;;;;;;;;;;5051501;28;20225;-65
2020/12/15 03:06:53;;;;;;;6.85;6.25;;;;;;;;;;5051190;28;20236;-65
2020/12/15 03:09:20;;;;;;;6.43;5.82;;;;;;;;;;5050959;28;20227;-65
2020/12/15 03:11:46;;;;;;;6.38;5.82;;;;;;;;;;5042406;28;20218;-64
2020/12/15 03:14:14;;;;;;;6.75;6.10;;;;;;;;;;5043206;28;20214;-66
2020/12/15 03:16:41;;;;;;;6.72;5.85;;;;;;;;;;5034840;28;20202;-66
2020/12/15 03:19:07;;;;;;;6.50;5.90;;;;;;;;;;5034629;28;20199;-64
2020/12/15 03:21:35;;;;;;;8.15;6.75;;;;;;;;;;5034343;28;20222;-65
2020/12/15 03:24:02;;;;;;;6.85;6.10;;;;;;;;;;5034236;28;20206;-65
2020/12/15 03:26:29;;;;;;;6.50;5.90;;;;;;;;;;5034372;28;20210;-65
2020/12/15 03:28:56;;;;;;;6.40;5.80;;;;;;;;;;5033789;28;20760;-65
2020/12/15 03:31:24;;;;;;;6.60;6.00;;;;;;;;;;5034041;28;20226;-65
2020/12/15 03:33:50;;;;;;;8.55;6.25;;;;;;;;;;5034179;28;20206;-64
2020/12/15 03:36:18;;;;;;;7.00;6.40;;;;;;;;;;5034687;28;20211;-64
2020/12/15 03:38:44;;;;;;;6.28;5.68;;;;;;;;;;5034079;28;20262;-65
2020/12/15 03:41:11;;;;;;;7.10;6.38;;;;;;;;;;5033854;28;20292;-65
2020/12/15 03:43:38;;;;;;;10.20;5.65;;;;;;;;;;5034300;28;20615;-65
2020/12/15 03:46:05;;;;;;;6.25;5.75;;;;;;;;;;5034307;28;20229;-65
2020/12/15 03:48:32;;;;;;;6.97;6.30;;;;;;;;;;5033651;28;20222;-65
2020/12/15 03:50:59;;;;;;;5.57;5.07;;;;;;;;;;5033993;28;20244;-65
2020/12/15 03:53:26;;;;;;;7.35;5.90;;;;;;;;;;5033908;28;20271;-65
2020/12/15 03:55:53;;;;;;;7.13;5.90;;;;;;;;;;5033523;28;20248;-65
2020/12/15 03:58:19;;;;;;;6.35;5.75;;;;;;;;;;5033732;28;20244;-65
2020/12/15 04:00:46;;;;;;;6.00;5.45;;;;;;;;;;5033835;28;20223;-64
2020/12/15 04:03:13;;;;;;;5.70;5.20;;;;;;;;;;5033726;28;20550;-64
2020/12/15 04:07:29;;;;;;;6.47;5.50;;;;;;;;;;5112142;27;20532;-65
2020/12/15 04:09:56;;;;;;;6.05;5.55;;;;;;;;;;5111855;28;20652;-64
2020/12/15 04:12:23;;;;;;;6.65;6.05;;;;;;;;;;5111433;28;20208;-65
2020/12/15 04:14:50;;;;;;;5.70;5.20;;;;;;;;;;5111491;28;20264;-65
2020/12/15 04:17:16;;;;;;;6.53;5.82;;;;;;;;;;5111489;28;20556;-64
2020/12/15 04:19:43;;;;;;;6.28;5.30;;;;;;;;;;5112344;28;20204;-64
2020/12/15 04:22:10;;;;;;;6.32;5.82;;;;;;;;;;5111294;28;20203;-64
2020/12/15 04:24:37;;;;;;;5.60;5.10;;;;;;;;;;5111247;28;20200;-64
2020/12/15 04:27:04;;;;;;;5.90;5.35;;;;;;;;;;5111133;28;20242;-65
2020/12/15 04:29:31;;;;;;;6.03;5.43;;;;;;;;;;5110952;28;20275;-65
2020/12/15 04:31:58;;;;;;;5.53;5.00;;;;;;;;;;5113659;28;20253;-65
2020/12/15 04:34:24;;;;;;;5.55;5.05;;;;;;;;;;5112702;28;20249;-65
2020/12/15 04:36:51;;;;;;;5.70;5.20;;;;;;;;;;5112264;28;20245;-65
2020/12/15 04:39:18;;;;;;;4.68;4.28;;;;;;;;;;5114220;28;20200;-65
2020/12/15 04:41:46;;;;;;;5.00;4.50;;;;;;;;;;5114472;28;20226;-65
2020/12/15 04:44:12;;;;;;;5.88;5.38;;;;;;;;;;5113165;28;20567;-65
2020/12/15 04:46:48;;;;;;;6.25;5.65;;;;;;;;;;5110535;28;20216;-64
2020/12/15 04:49:20;;;;;;;6.25;5.65;;;;;;;;;;5112616;28;20253;-64
2020/12/15 04:51:57;;;;;;;6.10;5.60;;;;;;;;;;5112731;28;20590;-64
2020/12/15 04:54:28;;;;;;;6.32;5.72;;;;;;;;;;5112691;28;20188;-65
2020/12/15 04:56:59;;;;;;;5.85;5.35;;;;;;;;;;5112634;28;20230;-64
2020/12/15 04:59:29;;;;;;;7.25;5.45;;;;;;;;;;5111504;28;20191;-64
2020/12/15 05:01:56;;;;;;;6.03;5.43;;;;;;;;;;5110644;28;20220;-65
2020/12/15 05:04:24;;;;;;;6.63;6.03;;;;;;;;;;5110951;28;20686;-63
2020/12/15 05:06:52;;;;;;;6.47;5.88;;;;;;;;;;5111967;28;20230;-63
2020/12/15 05:09:23;;;;;;;6.43;5.82;;;;;;;;;;5112379;28;20216;-64
2020/12/15 05:11:49;;;;;;;5.70;5.10;;;;;;;;;;5111739;28;20400;-63
2020/12/15 05:14:17;;;;;;;5.78;5.22;;;;;;;;;;5110504;28;20710;-64
2020/12/15 05:16:44;;;;;;;7.38;5.10;;;;;;;;;;5110086;28;20245;-64
2020/12/15 05:19:10;;;;;;;6.57;5.57;;;;;;;;;;5097361;28;20679;-63
2020/12/15 05:21:37;;;;;;;5.50;5.00;;;;;;;;;;5098517;28;20273;-64
2020/12/15 05:24:08;;;;;;;6.28;5.68;;;;;;;;;;5097814;28;20253;-62
2020/12/15 05:26:35;;;;;;;6.60;5.55;;;;;;;;;;5097232;28;20303;-64
2020/12/15 05:29:06;;;;;;;6.20;5.60;;;;;;;;;;5096923;28;20321;-63
2020/12/15 05:31:34;;;;;;;6.03;5.43;;;;;;;;;;5096225;28;20707;-65
2020/12/15 05:34:02;;;;;;;5.80;5.30;;;;;;;;;;5095969;28;20200;-63
2020/12/15 05:36:29;;;;;;;5.60;5.10;;;;;;;;;;5096929;28;20255;-64
2020/12/15 05:39:04;;;;;;;6.60;5.60;;;;;;;;;;5096450;28;20200;-63
2020/12/15 05:41:32;;;;;;;5.90;5.30;;;;;;;;;;5095997;28;20306;-63
2020/12/15 05:43:59;;;;;;;7.35;5.78;;;;;;;;;;5095958;28;20204;-63
2020/12/15 05:46:28;;;;;;;5.97;5.38;;;;;;;;;;5096585;28;20220;-63
2020/12/15 05:49:05;;;;;;;6.25;5.50;;;;;;;;;;5098068;28;20200;-64
2020/12/15 05:51:41;;;;;;;6.82;6.22;;;;;;;;;;5097418;28;20254;-64
2020/12/15 05:54:08;;;;;;;6.78;6.10;;;;;;;;;;5096047;28;20200;-63
2020/12/15 05:56:37;;;;;;;9.07;6.30;;;;;;;;;;5096297;28;20197;-63
2020/12/15 05:59:14;;;;;;;7.25;5.60;;;;;;;;;;5096339;28;20222;-64
2020/12/15 06:01:41;;;;;;;6.07;5.47;;;;;;;;;;5095754;28;20227;-64
2020/12/15 06:04:08;;;;;;;7.05;6.30;;;;;;;;;;5095917;28;20276;-64
2020/12/15 06:06:37;;;;;;;6.90;6.20;;;;;;;;;;5095291;28;20595;-64
2020/12/15 06:09:04;;;;;;;8.13;6.72;;;;;;;;;;5095579;28;20257;-64
2020/12/15 06:11:33;;;;;;;6.85;6.07;;;;;;;;;;5095320;28;20228;-64
2020/12/15 06:14:01;;;;;;;6.93;6.07;;;;;;;;;;5095058;28;20253;-63
2020/12/15 06:16:28;;;;;;;9.20;6.80;;;;;;;;;;5096342;28;20253;-64
2020/12/15 06:18:55;;;;;;;7.70;6.90;;;;;;;;;;5095081;28;20204;-62
2020/12/15 06:21:24;;;;;;;6.70;6.00;;;;;;;;;;5094857;28;20224;-62
2020/12/15 06:23:58;;;;;;;6.65;6.05;;;;;;;;;;5095333;28;20204;-63
2020/12/15 06:26:25;;;;;;;6.97;6.25;;;;;;;;;;5095538;28;20204;-64
2020/12/15 06:28:57;;;;;;;7.07;6.10;;;;;;;;;;5094438;28;20208;-65
2020/12/15 06:31:24;;;;;;;7.95;6.72;;;;;;;;;;5094796;28;20231;-64
2020/12/15 06:33:55;;;;;;;7.05;6.35;;;;;;;;;;5094817;28;20200;-64
2020/12/15 06:36:26;;;;;;;6.00;5.40;;;;;;;;;;5095164;28;20184;-63
2020/12/15 06:38:53;;;;;;;7.30;5.70;;;;;;;;;;5095261;28;20208;-63
2020/12/15 06:41:20;;;;;;;9.60;7.05;;;;;;;;;;5095567;28;20220;-62
2020/12/15 06:43:47;;;;;;;7.70;6.13;;;;;;;;;;5095417;28;20215;-63
2020/12/15 06:46:14;;;;;;;7.63;6.82;;;;;;;;;;5094956;28;20261;-64
2020/12/15 06:48:41;;;;;;;7.30;6.60;;;;;;;;;;5094747;28;20613;-63
2020/12/15 06:51:08;;;;;;;6.38;5.75;;;;;;;;;;5094458;28;20703;-64
2020/12/15 06:53:35;;;;;;;6.55;5.75;;;;;;;;;;5094412;28;20215;-64
2020/12/15 06:56:03;;;;;;;6.90;6.20;;;;;;;;;;5094462;28;20287;-64
2020/12/15 06:58:31;;;;;;;7.75;6.00;;;;;;;;;;5095562;28;20208;-61
2020/12/15 07:00:58;;;;;;;7.82;6.95;;;;;;;;;;5095080;28;20223;-62
2020/12/15 07:03:35;;;;;;;6.95;5.95;;;;;;;;;;5095354;28;20207;-62
2020/12/15 07:06:08;;;;;;;7.45;6.15;;;;;;;;;;5095540;28;20603;-63
2020/12/15 07:08:36;;;;;;;10.60;7.20;;;;;;;;;;5094391;28;20202;-63
2020/12/15 07:11:03;;;;;;;7.88;6.75;;;;;;;;;;5094449;28;20220;-62
2020/12/15 07:13:29;;;;;;;6.95;6.13;;;;;;;;;;5098099;28;20200;-63
2020/12/15 07:15:56;;;;;;;7.68;6.88;;;;;;;;;;5098216;28;20203;-62
2020/12/15 07:18:23;;;;;;;6.90;6.20;;;;;;;;;;5101229;28;20200;-63
2020/12/15 07:20:50;;;;;;;7.10;6.30;;;;;;;;;;5098575;28;20334;-61
2020/12/15 07:23:17;;;;;;;8.85;6.95;;;;;;;;;;5097699;28;20725;-63
2020/12/15 07:25:45;;;;;;;7.00;6.30;;;;;;;;;;5095954;28;20307;-62
2020/12/15 07:28:12;;;;;;;7.35;6.55;;;;;;;;;;5096352;28;20207;-62
2020/12/15 07:30:39;;;;;;;7.85;6.63;;;;;;;;;;5096682;28;20368;-62
2020/12/15 07:33:06;;;;;;;9.73;7.50;;;;;;;;;;5096038;28;20223;-61
2020/12/15 07:35:34;;;;;;;8.38;7.32;;;;;;;;;;5095475;28;20207;-63
2020/12/15 07:38:03;;;;;;;8.45;7.60;;;;;;;;;;5094846;28;20196;-61
2020/12/15 07:40:30;;;;;;;8.15;7.35;;;;;;;;;;5094050;28;20269;-61
2020/12/15 07:42:59;;;;;;;10.70;7.57;;;;;;;;;;5094355;28;20260;-62
2020/12/15 07:45:26;;;;;;;7.47;6.78;;;;;;;;;;5094096;28;20200;-61
2020/12/15 07:47:53;;;;;;;9.18;6.78;;;;;;;;;;5094053;28;20208;-62
2020/12/15 07:50:24;;;;;;;8.23;7.43;;;;;;;;;;5094020;28;20326;-61
2020/12/15 07:52:51;;;;;;;8.25;7.47;;;;;;;;;;5093867;28;20283;-61
2020/12/15 07:55:18;;;;;;;8.52;7.63;;;;;;;;;;5092690;28;20432;-63
2020/12/15 07:57:44;;;;;;;9.13;8.23;;;;;;;;;;5094140;28;20192;-61
2020/12/15 08:00:14;;;;;;;8.80;7.80;;;;;;;;;;5093549;28;20224;-62
2020/12/15 08:02:42;;;;;;;9.23;8.20;;;;;;;;;;5094599;28;20284;-62
2020/12/15 08:05:10;;;;;;;8.75;7.03;;;;;;;;;;5096121;28;20253;-63
2020/12/15 08:07:47;;;;;;;9.02;8.13;;;;;;;;;;5095260;28;20286;-63
2020/12/15 08:10:14;;;;;;;7.63;6.80;;;;;;;;;;5094442;28;20223;-63
2020/12/15 08:12:41;;;;;;;8.10;7.25;;;;;;;;;;5094406;28;20200;-63
2020/12/15 08:15:09;;;;;;;8.38;7.68;;;;;;;;;;5094114;28;20299;-62
2020/12/15 08:17:38;;;;;;;7.93;7.13;;;;;;;;;;5094580;28;20192;-62
2020/12/15 08:20:06;;;;;;;8.05;7.13;;;;;;;;;;5094632;28;20220;-63
2020/12/15 08:22:34;;;;;;;10.88;9.75;;;;;;;;;;5093787;28;20204;-62
2020/12/15 08:25:01;;;;;;;13.27;7.68;;;;;;;;;;5094824;28;20257;-62
2020/12/15 08:27:29;;;;;;;8.48;7.68;;;;;;;;;;5095002;28;20692;-62
2020/12/15 08:29:56;;;;;;;9.18;8.02;;;;;;;;;;5094325;28;20219;-62
2020/12/15 08:32:27;;;;;;;8.07;7.28;;;;;;;;;;5094193;28;20197;-62
2020/12/15 08:34:58;;;;;;;10.15;7.38;;;;;;;;;;5094740;28;20207;-61
2020/12/15 08:37:26;;;;;;;9.30;8.48;;;;;;;;;;5093842;28;20668;-62
2020/12/15 08:39:53;;;;;;;11.32;9.00;;;;;;;;;;5094179;28;20588;-63
2020/12/15 08:42:20;;;;;;;10.27;7.75;;;;;;;;;;5094415;28;20353;-63
2020/12/15 08:44:47;;;;;;;10.52;9.30;;;;;;;;;;5094212;28;20208;-63
2020/12/15 08:47:16;;;;;;;9.82;7.90;;;;;;;;;;5094000;28;20687;-62
2020/12/15 08:49:45;;;;;;;9.07;8.02;;;;;;;;;;5095178;28;20294;-62
2020/12/15 08:52:12;;;;;;;11.20;7.78;;;;;;;;;;5095779;28;20252;-63
2020/12/15 08:54:42;;;;;;;9.05;6.97;;;;;;;;;;5097784;28;20204;-63
2020/12/15 08:57:13;;;;;;;10.15;8.57;;;;;;;;;;5098367;28;20671;-63
2020/12/15 08:59:40;;;;;;;12.20;7.72;;;;;;;;;;5097928;28;20196;-62
2020/12/15 09:02:07;;;;;;;10.13;8.68;;;;;;;;;;5097882;28;20200;-63
2020/12/15 09:04:33;;;;;;;9.30;8.02;;;;;;;;;;5098957;28;20203;-61
2020/12/15 09:07:11;;;;;;;8.50;7.55;;;;;;;;;;5097354;28;20527;-63
2020/12/15 09:09:38;;;;;;;8.88;7.60;;;;;;;;;;5098865;28;20188;-63
2020/12/15 09:12:05;;;;;;;8.70;7.80;;;;;;;;;;5097606;28;20204;-62
2020/12/15 09:14:32;;;;;;;9.40;8.02;;;;;;;;;;5098389;28;20204;-62
2020/12/15 09:16:59;;;;;;;8.48;7.65;;;;;;;;;;5098338;28;20192;-62
2020/12/15 09:19:27;;;;;;;7.60;6.80;;;;;;;;;;5096990;28;20205;-63
2020/12/15 09:21:57;;;;;;;9.18;8.13;;;;;;;;;;5096940;28;20224;-61
2020/12/15 09:24:24;;;;;;;9.32;8.30;;;;;;;;;;5097676;28;20212;-62
2020/12/15 09:26:51;;;;;;;10.63;8.48;;;;;;;;;;5096362;28;20220;-61
2020/12/15 09:29:19;;;;;;;10.93;8.70;;;;;;;;;;5098603;28;20273;-62
2020/12/15 09:32:01;;;;;;;11.30;8.65;;;;;;;;;;5098255;28;20247;-61
2020/12/15 09:34:29;;;;;;;7.70;6.90;;;;;;;;;;5096333;28;20195;-62
2020/12/15 09:36:57;;;;;;;9.30;7.35;;;;;;;;;;5095848;28;20204;-63
2020/12/15 09:39:25;;;;;;;9.23;7.95;;;;;;;;;;5095595;28;20671;-62
2020/12/15 09:41:56;;;;;;;8.90;7.90;;;;;;;;;;5095879;28;20220;-62
2020/12/15 09:44:23;;;;;;;12.82;8.55;;;;;;;;;;5096117;28;20180;-62
2020/12/15 09:46:50;;;;;;;9.88;7.95;;;;;;;;;;5096706;28;20306;-62
2020/12/15 09:49:16;;;;;;;9.18;8.10;;;;;;;;;;5098790;28;20211;-63
2020/12/15 09:51:43;;;;;;;9.05;8.15;;;;;;;;;;5097095;28;20217;-62
2020/12/15 09:54:10;;;;;;;8.75;7.85;;;;;;;;;;5096917;28;20207;-62
2020/12/15 09:56:42;;;;;;;8.95;8.05;;;;;;;;;;5097342;28;20196;-63
2020/12/15 09:59:09;;;;;;;10.32;9.18;;;;;;;;;;5096603;28;20189;-62
2020/12/15 10:01:36;;;;;;;8.73;7.80;;;;;;;;;;5096939;28;20216;-62
2020/12/15 10:04:03;;;;;;;8.45;7.65;;;;;;;;;;5095631;28;20262;-63
2020/12/15 10:06:29;;;;;;;9.63;7.70;;;;;;;;;;5095783;28;20220;-64
2020/12/15 10:08:56;;;;;;;9.40;8.40;;;;;;;;;;5095953;28;20688;-64
2020/12/15 10:11:25;;;;;;;8.35;7.03;;;;;;;;;;5096000;28;20364;-63
2020/12/15 10:13:52;;;;;;;8.95;7.65;;;;;;;;;;5096089;28;20205;-63
2020/12/15 10:16:19;;;;;;;8.88;7.97;;;;;;;;;;5095508;28;20200;-61
2020/12/15 10:18:46;;;;;;;10.15;8.48;;;;;;;;;;5095949;28;20204;-63
2020/12/15 10:21:13;;;;;;;10.18;7.82;;;;;;;;;;5095439;28;20235;-63
2020/12/15 10:23:40;;;;;;;8.90;8.00;;;;;;;;;;5095297;28;20250;-63
2020/12/15 10:26:07;;;;;;;9.00;7.87;;;;;;;;;;5095249;28;21004;-63
2020/12/15 10:28:34;;;;;;;9.70;8.47;;;;;;;;;;5095692;28;20446;-63
2020/12/15 10:31:01;;;;;;;9.30;8.40;;;;;;;;;;5095821;28;20550;-65
2020/12/15 10:33:29;;;;;;;9.35;8.00;;;;;;;;;;5094374;28;20901;-65
2020/12/15 10:35:56;;;;;;;10.03;9.00;;;;;;;;;;5095453;28;20504;-65
2020/12/15 10:38:22;;;;;;;8.47;7.63;;;;;;;;;;5094739;28;20626;-63
2020/12/15 10:40:49;;;;;;;8.77;7.67;;;;;;;;;;5095074;28;20462;-63
2020/12/15 10:43:17;;;;;;;8.53;7.63;;;;;;;;;;5094887;28;20454;-65
2020/12/15 10:45:43;;;;;;;10.40;9.13;;;;;;;;;;5094371;28;20533;-64
2020/12/15 10:48:10;;;;;;;8.87;7.97;;;;;;;;;;5095021;28;20442;-65
2020/12/15 10:50:39;;;;;;;9.27;7.70;;;;;;;;;;5094958;28;20478;-63
2020/12/15 10:53:09;;;;;;;8.50;7.67;;;;;;;;;;5095226;28;20446;-64
2020/12/15 10:55:36;;;;;;;8.23;7.17;;;;;;;;;;5094531;28;20796;-64
2020/12/15 10:58:02;;;;;;;10.00;7.87;;;;;;;;;;5095332;28;20529;-64
2020/12/15 11:00:29;;;;;;;7.40;6.70;;;;;;;;;;5094675;28;20462;-64
2020/12/15 11:02:56;;;;;;;9.27;8.30;;;;;;;;;;5095376;28;20446;-64
2020/12/15 11:05:23;;;;;;;9.30;7.70;;;;;;;;;;5094629;28;20451;-63
2020/12/15 11:07:50;;;;;;;8.50;7.20;;;;;;;;;;5095198;28;20462;-65
2020/12/15 11:10:17;;;;;;;8.30;7.37;;;;;;;;;;5094683;28;20477;-62
2020/12/15 11:12:44;;;;;;;8.20;7.00;;;;;;;;;;5094845;28;20445;-63
2020/12/15 11:15:11;;;;;;;9.30;8.40;;;;;;;;;;5094316;28;20454;-64
2020/12/15 11:17:37;;;;;;;7.53;6.83;;;;;;;;;;5094709;28;21063;-64
2020/12/15 11:20:05;;;;;;;9.67;7.50;;;;;;;;;;5096957;28;20477;-64
2020/12/15 11:22:32;;;;;;;9.13;7.00;;;;;;;;;;5098439;28;20446;-64
2020/12/15 11:24:59;;;;;;;9.65;7.97;;;;;;;;;;5100624;28;20449;-65
2020/12/15 11:27:27;;;;;;;8.07;7.28;;;;;;;;;;5096303;28;20769;-64
2020/12/15 11:29:53;;;;;;;7.90;7.10;;;;;;;;;;5096072;28;20259;-63
2020/12/15 11:32:20;;;;;;;8.40;7.50;;;;;;;;;;5100420;28;20448;-63
2020/12/15 11:34:47;;;;;;;7.57;6.83;;;;;;;;;;5100513;28;20442;-63
2020/12/15 11:37:14;;;;;;;8.82;7.55;;;;;;;;;;5101354;28;20439;-63
2020/12/15 11:39:40;;;;;;;8.32;7.22;;;;;;;;;;5103251;28;20200;-63
2020/12/15 11:42:10;;;;;;;9.25;8.18;;;;;;;;;;5103747;28;20204;-64
2020/12/15 11:44:37;;;;;;;9.40;8.43;;;;;;;;;;5101602;28;20216;-64
2020/12/15 11:47:04;;;;;;;9.20;8.00;;;;;;;;;;5099039;28;20242;-63
2020/12/15 11:49:32;;;;;;;8.45;7.65;;;;;;;;;;5097436;28;20265;-64
2020/12/15 11:51:58;;;;;;;9.10;8.20;;;;;;;;;;5095910;28;20563;-65
2020/12/15 11:54:26;;;;;;;9.60;7.40;;;;;;;;;;5095209;28;20204;-64
2020/12/15 11:56:53;;;;;;;11.05;7.80;;;;;;;;;;5095008;28;20196;-64
2020/12/15 11:59:21;;;;;;;9.60;8.15;;;;;;;;;;5095505;28;20204;-64
2020/12/15 12:01:48;;;;;;;8.65;7.75;;;;;;;;;;5097849;28;20232;-61
2020/12/15 12:04:15;;;;;;;8.30;7.40;;;;;;;;;;5096651;28;20207;-64
2020/12/15 12:06:41;;;;;;;8.93;7.10;;;;;;;;;;5095386;28;20494;-64
2020/12/15 12:09:08;;;;;;;8.77;7.97;;;;;;;;;;5096228;28;20204;-65
2020/12/15 12:11:35;;;;;;;7.30;6.55;;;;;;;;;;5096382;28;20703;-64
2020/12/15 12:14:01;;;;;;;9.38;8.27;;;;;;;;;;5096465;28;20203;-64
2020/12/15 12:16:29;;;;;;;10.65;7.97;;;;;;;;;;5095352;28;20196;-64
2020/12/15 12:18:56;;;;;;;9.33;7.57;;;;;;;;;;5095974;28;20341;-64
2020/12/15 12:21:23;;;;;;;7.65;6.93;;;;;;;;;;5097190;28;20488;-63
2020/12/15 12:23:49;;;;;;;8.50;7.55;;;;;;;;;;5096114;28;20201;-64
2020/12/15 12:26:16;;;;;;;7.80;7.00;;;;;;;;;;5095079;28;20216;-63
2020/12/15 12:28:43;;;;;;;8.73;7.82;;;;;;;;;;5099597;28;20222;-63
2020/12/15 12:31:11;;;;;;;10.15;7.55;;;;;;;;;;5101858;28;20216;-65
2020/12/15 12:33:39;;;;;;;10.23;7.63;;;;;;;;;;5099994;28;20200;-64
2020/12/15 12:36:06;;;;;;;11.15;7.55;;;;;;;;;;5099801;28;20814;-64
2020/12/15 12:38:32;;;;;;;11.18;7.50;;;;;;;;;;5099880;28;20204;-64
2020/12/15 12:40:59;;;;;;;12.03;7.30;;;;;;;;;;5098425;28;20719;-63
2020/12/15 12:43:26;;;;;;;7.60;6.80;;;;;;;;;;5101356;28;20813;-63
2020/12/15 12:45:53;;;;;;;9.25;7.15;;;;;;;;;;5099110;28;20853;-64
2020/12/15 12:48:20;;;;;;;7.65;6.40;;;;;;;;;;5099013;28;20668;-64
2020/12/15 12:50:47;;;;;;;6.88;6.28;;;;;;;;;;5097159;28;20224;-64
2020/12/15 12:53:14;;;;;;;7.80;6.55;;;;;;;;;;5097386;28;20201;-63
2020/12/15 12:55:41;;;;;;;8.95;7.13;;;;;;;;;;5097302;28;20211;-62
2020/12/15 12:58:08;;;;;;;7.70;6.85;;;;;;;;;;5097134;28;20204;-63
2020/12/15 13:00:34;;;;;;;11.17;7.37;;;;;;;;;;5097070;28;20224;-64
2020/12/15 13:03:01;;;;;;;8.10;6.93;;;;;;;;;;5097684;28;20442;-63
2020/12/15 13:05:28;;;;;;;8.13;6.93;;;;;;;;;;5097683;28;20458;-64
2020/12/15 13:07:55;;;;;;;7.57;6.87;;;;;;;;;;5096925;28;20981;-63
2020/12/15 13:10:22;;;;;;;7.50;6.80;;;;;;;;;;5096962;28;20578;-64
2020/12/15 13:12:49;;;;;;;7.30;6.60;;;;;;;;;;5096860;28;20671;-63
2020/12/15 13:15:16;;;;;;;7.40;6.37;;;;;;;;;;5097172;28;20542;-63
2020/12/15 13:17:42;;;;;;;7.00;6.40;;;;;;;;;;5097372;28;20515;-63
2020/12/15 13:20:10;;;;;;;7.03;6.33;;;;;;;;;;5097400;28;20817;-64
2020/12/15 13:22:37;;;;;;;7.40;6.60;;;;;;;;;;5097648;28;20449;-64
2020/12/15 13:25:11;;;;;;;9.60;7.90;;;;;;;;;;5097151;28;20734;-63
2020/12/15 13:27:38;;;;;;;8.20;7.40;;;;;;;;;;5097760;28;20204;-63
2020/12/15 13:30:05;;;;;;;9.25;8.30;;;;;;;;;;5096683;28;20220;-65
2020/12/15 13:32:32;;;;;;;9.57;8.52;;;;;;;;;;5096729;28;20211;-64
2020/12/15 13:34:58;;;;;;;9.90;8.70;;;;;;;;;;5096239;28;20200;-65
2020/12/15 13:37:25;;;;;;;11.18;8.75;;;;;;;;;;5095980;28;20548;-66
2020/12/15 13:39:52;;;;;;;12.48;10.20;;;;;;;;;;5095894;28;20682;-65
2020/12/15 13:42:19;;;;;;;11.23;9.90;;;;;;;;;;5095836;28;20204;-66
2020/12/15 13:44:47;;;;;;;14.68;10.10;;;;;;;;;;5096688;28;20227;-65
2020/12/15 13:47:14;;;;;;;10.85;9.40;;;;;;;;;;5096144;28;20220;-65
2020/12/15 13:49:41;;;;;;;11.90;9.85;;;;;;;;;;5096226;28;20211;-64
2020/12/15 13:52:11;;;;;;;11.48;9.95;;;;;;;;;;5096182;28;20207;-64
2020/12/15 13:54:38;;;;;;;11.20;10.05;;;;;;;;;;5095917;28;20726;-64
2020/12/15 13:57:05;;;;;;;10.68;9.65;;;;;;;;;;5095682;28;20196;-65
2020/12/15 13:59:32;;;;;;;10.70;9.57;;;;;;;;;;5095677;28;20200;-63
2020/12/15 14:01:59;;;;;;;11.15;9.95;;;;;;;;;;5096241;28;20197;-64
2020/12/15 14:04:26;;;;;;;10.10;9.10;;;;;;;;;;5095439;28;20204;-64
2020/12/15 14:06:53;;;;;;;11.75;10.02;;;;;;;;;;5095428;28;20224;-64
2020/12/15 14:09:20;;;;;;;11.77;9.95;;;;;;;;;;5095790;28;20218;-64
2020/12/15 14:11:46;;;;;;;13.75;11.50;;;;;;;;;;5095187;28;20691;-62
2020/12/15 14:14:13;;;;;;;11.15;9.73;;;;;;;;;;5095622;28;20204;-64
2020/12/15 14:16:44;;;;;;;10.95;9.23;;;;;;;;;;5095434;28;20204;-64
2020/12/15 14:19:10;;;;;;;11.48;10.07;;;;;;;;;;5096230;28;20189;-63
2020/12/15 14:21:41;;;;;;;11.98;10.35;;;;;;;;;;5095394;28;20216;-64
2020/12/15 14:24:08;;;;;;;12.98;11.10;;;;;;;;;;5095884;28;20283;-63
2020/12/15 14:26:36;;;;;;;12.32;10.25;;;;;;;;;;5094848;28;20220;-66
2020/12/15 14:29:05;;;;;;;11.23;10.00;;;;;;;;;;5095329;28;20728;-65
2020/12/15 14:31:32;;;;;;;13.38;11.77;;;;;;;;;;5096078;28;20256;-65
2020/12/15 14:33:59;;;;;;;15.15;10.90;;;;;;;;;;5095891;28;20200;-66
2020/12/15 14:36:26;;;;;;;13.10;11.23;;;;;;;;;;5097172;28;20196;-65
2020/12/15 14:38:53;;;;;;;11.85;10.20;;;;;;;;;;5097463;28;20200;-64
2020/12/15 14:41:20;;;;;;;12.05;10.80;;;;;;;;;;5096622;28;20229;-65
2020/12/15 14:43:46;;;;;;;14.55;11.18;;;;;;;;;;5096949;28;20207;-65